sensor_id;sensor_type;location;lat;lon;timestamp;pressure;altitude;pressure_sealevel;temperature;humidity
59650;BME280;46162;57.568;25.814;2023-07-22T00:01:22;100154.56;;;10.76;100.00
59650;BME280;46162;57.568;25.814;2023-07-22T00:03:50;100156.91;;;10.71;100.00
59650;BME280;46162;57.568;25.814;2023-07-22T00:06:19;100168.34;;;10.73;100.00
59650;BME280;46162;57.568;25.814;2023-07-22T00:08:47;100164.66;;;10.74;100.00
59650;BME280;46162;57.568;25.814;2023-07-22T00:11:17;100160.25;;;10.65;100.00
59650;BME280;46162;57.568;25.814;2023-07-22T00:13:47;100160.59;;;10.62;100.00
59650;BME280;46162;57.568;25.814;2023-07-22T00:16:15;100170.00;;;10.49;100.00
59650;BME280;46162;57.568;25.814;2023-07-22T00:18:44;100163.56;;;10.42;100.00
59650;BME280;46162;57.568;25.814;2023-07-22T00:21:14;100167.72;;;10.28;100.00
59650;BME280;46162;57.568;25.814;2023-07-22T00:23:43;100169.47;;;10.46;100.00
59650;BME280;46162;57.568;25.814;2023-07-22T00:26:13;100177.94;;;10.51;100.00
59650;BME280;46162;57.568;25.814;2023-07-22T00:28:43;100171.47;;;10.36;100.00
59650;BME280;46162;57.568;25.814;2023-07-22T00:31:11;100172.22;;;10.20;100.00
59650;BME280;46162;57.568;25.814;2023-07-22T00:33:40;100166.72;;;10.29;100.00
59650;BME280;46162;57.568;25.814;2023-07-22T00:36:09;100169.13;;;10.41;100.00
59650;BME280;46162;57.568;25.814;2023-07-22T00:38:37;100170.34;;;10.46;100.00
59650;BME280;46162;57.568;25.814;2023-07-22T00:41:07;100169.84;;;10.59;100.00
59650;BME280;46162;57.568;25.814;2023-07-22T00:43:35;100174.41;;;10.59;100.00
59650;BME280;46162;57.568;25.814;2023-07-22T00:46:06;100168.69;;;10.62;100.00
59650;BME280;46162;57.568;25.814;2023-07-22T00:48:35;100173.25;;;10.61;100.00
59650;BME280;46162;57.568;25.814;2023-07-22T00:51:05;100173.25;;;10.61;100.00
59650;BME280;46162;57.568;25.814;2023-07-22T00:53:33;100173.44;;;10.76;100.00
59650;BME280;46162;57.568;25.814;2023-07-22T00:56:01;100173.59;;;10.74;100.00
59650;BME280;46162;57.568;25.814;2023-07-22T00:58:30;100167.03;;;10.77;100.00
59650;BME280;46162;57.568;25.814;2023-07-22T01:00:59;100176.78;;;10.70;100.00
59650;BME280;46162;57.568;25.814;2023-07-22T01:03:29;100172.41;;;10.69;100.00
59650;BME280;46162;57.568;25.814;2023-07-22T01:05:59;100181.56;;;10.76;100.00
59650;BME280;46162;57.568;25.814;2023-07-22T01:08:28;100176.78;;;10.70;100.00
59650;BME280;46162;57.568;25.814;2023-07-22T01:10:59;100175.13;;;10.69;100.00
59650;BME280;46162;57.568;25.814;2023-07-22T01:13:27;100178.84;;;10.84;100.00
59650;BME280;46162;57.568;25.814;2023-07-22T01:15:56;100178.00;;;10.84;100.00
59650;BME280;46162;57.568;25.814;2023-07-22T01:18:25;100172.91;;;10.72;100.00
59650;BME280;46162;57.568;25.814;2023-07-22T01:20:55;100174.56;;;10.57;100.00
59650;BME280;46162;57.568;25.814;2023-07-22T01:23:25;100179.47;;;10.53;100.00
59650;BME280;46162;57.568;25.814;2023-07-22T01:25:54;100181.84;;;10.65;100.00
59650;BME280;46162;57.568;25.814;2023-07-22T01:28:23;100180.66;;;10.59;100.00
59650;BME280;46162;57.568;25.814;2023-07-22T01:30:52;100179.34;;;10.63;100.00
59650;BME280;46162;57.568;25.814;2023-07-22T01:33:21;100180.13;;;10.55;100.00
59650;BME280;46162;57.568;25.814;2023-07-22T01:35:49;100172.38;;;10.61;100.00
59650;BME280;46162;57.568;25.814;2023-07-22T01:38:19;100171.88;;;10.65;100.00
59650;BME280;46162;57.568;25.814;2023-07-22T01:40:49;100172.03;;;10.55;100.00
59650;BME280;46162;57.568;25.814;2023-07-22T01:43:17;100169.13;;;10.41;100.00
59650;BME280;46162;57.568;25.814;2023-07-22T01:45:46;100181.16;;;10.54;100.00
59650;BME280;46162;57.568;25.814;2023-07-22T01:48:14;100181.28;;;10.53;100.00
59650;BME280;46162;57.568;25.814;2023-07-22T01:50:43;100172.53;;;10.51;100.00
59650;BME280;46162;57.568;25.814;2023-07-22T01:53:12;100180.13;;;10.55;100.00
59650;BME280;46162;57.568;25.814;2023-07-22T01:55:40;100174.09;;;10.62;100.00
59650;BME280;46162;57.568;25.814;2023-07-22T01:58:11;100179.47;;;10.53;100.00
59650;BME280;46162;57.568;25.814;2023-07-22T02:00:40;100177.13;;;10.59;100.00
59650;BME280;46162;57.568;25.814;2023-07-22T02:03:08;100178.66;;;10.61;100.00
59650;BME280;46162;57.568;25.814;2023-07-22T02:05:37;100185.66;;;10.46;100.00
59650;BME280;46162;57.568;25.814;2023-07-22T02:08:06;100179.97;;;10.49;100.00
59650;BME280;46162;57.568;25.814;2023-07-22T02:10:34;100178.78;;;10.51;100.00
59650;BME280;46162;57.568;25.814;2023-07-22T02:13:03;100178.44;;;10.54;100.00
59650;BME280;46162;57.568;25.814;2023-07-22T02:15:33;100174.72;;;10.55;100.00
59650;BME280;46162;57.568;25.814;2023-07-22T02:18:02;100185.16;;;10.50;100.00
59650;BME280;46162;57.568;25.814;2023-07-22T02:20:31;100178.78;;;10.51;100.00
59650;BME280;46162;57.568;25.814;2023-07-22T02:23:00;100176.78;;;10.53;100.00
59650;BME280;46162;57.568;25.814;2023-07-22T02:25:28;100180.66;;;10.51;100.00
59650;BME280;46162;57.568;25.814;2023-07-22T02:27:57;100177.59;;;10.54;100.00
59650;BME280;46162;57.568;25.814;2023-07-22T02:30:26;100184.88;;;10.53;100.00
59650;BME280;46162;57.568;25.814;2023-07-22T02:32:56;100188.06;;;10.57;100.00
59650;BME280;46162;57.568;25.814;2023-07-22T02:35:24;100188.06;;;10.57;100.00
59650;BME280;46162;57.568;25.814;2023-07-22T02:37:53;100186.69;;;10.53;100.00
59650;BME280;46162;57.568;25.814;2023-07-22T02:40:22;100190.09;;;10.55;100.00
59650;BME280;46162;57.568;25.814;2023-07-22T02:42:50;100185.03;;;10.52;100.00
59650;BME280;46162;57.568;25.814;2023-07-22T02:45:19;100184.19;;;10.51;100.00
59650;BME280;46162;57.568;25.814;2023-07-22T02:47:47;100188.22;;;10.55;100.00
59650;BME280;46162;57.568;25.814;2023-07-22T02:50:18;100186.69;;;10.53;100.00
59650;BME280;46162;57.568;25.814;2023-07-22T02:52:47;100192.44;;;10.50;100.00
59650;BME280;46162;57.568;25.814;2023-07-22T02:55:16;100190.91;;;10.55;100.00
59650;BME280;46162;57.568;25.814;2023-07-22T02:57:46;100188.91;;;10.58;100.00
59650;BME280;46162;57.568;25.814;2023-07-22T03:00:17;100193.47;;;10.57;100.00
59650;BME280;46162;57.568;25.814;2023-07-22T03:02:51;100191.97;;;10.63;100.00
59650;BME280;46162;57.568;25.814;2023-07-22T03:05:22;100192.50;;;10.66;100.00
59650;BME280;46162;57.568;25.814;2023-07-22T03:07:53;100196.38;;;10.72;100.00
59650;BME280;46162;57.568;25.814;2023-07-22T03:10:21;100195.06;;;10.76;100.00
59650;BME280;46162;57.568;25.814;2023-07-22T03:12:50;100196.72;;;10.77;100.00
59650;BME280;46162;57.568;25.814;2023-07-22T03:15:22;100191.69;;;10.82;100.00
59650;BME280;46162;57.568;25.814;2023-07-22T03:17:53;100189.66;;;10.84;100.00
59650;BME280;46162;57.568;25.814;2023-07-22T03:20:24;100190.34;;;10.94;100.00
59650;BME280;46162;57.568;25.814;2023-07-22T03:22:53;100186.31;;;10.98;100.00
59650;BME280;46162;57.568;25.814;2023-07-22T03:25:22;100193.56;;;10.98;100.00
59650;BME280;46162;57.568;25.814;2023-07-22T03:27:51;100183.75;;;11.05;100.00
59650;BME280;46162;57.568;25.814;2023-07-22T03:30:22;100194.25;;;11.08;100.00
59650;BME280;46162;57.568;25.814;2023-07-22T03:32:51;100194.59;;;11.13;100.00
59650;BME280;46162;57.568;25.814;2023-07-22T03:35:20;100197.13;;;11.15;100.00
59650;BME280;46162;57.568;25.814;2023-07-22T03:37:50;100196.47;;;11.21;100.00
59650;BME280;46162;57.568;25.814;2023-07-22T03:40:19;100186.81;;;11.27;100.00
59650;BME280;46162;57.568;25.814;2023-07-22T03:42:48;100184.66;;;11.30;100.00
59650;BME280;46162;57.568;25.814;2023-07-22T03:45:17;100186.50;;;11.38;100.00
59650;BME280;46162;57.568;25.814;2023-07-22T03:47:51;100186.16;;;11.41;100.00
59650;BME280;46162;57.568;25.814;2023-07-22T03:50:20;100193.25;;;11.50;100.00
59650;BME280;46162;57.568;25.814;2023-07-22T03:52:50;100191.03;;;11.54;100.00
59650;BME280;46162;57.568;25.814;2023-07-22T03:55:19;100187.69;;;11.60;100.00
59650;BME280;46162;57.568;25.814;2023-07-22T03:57:48;100192.53;;;11.65;100.00
59650;BME280;46162;57.568;25.814;2023-07-22T04:00:17;100191.88;;;11.71;100.00
59650;BME280;46162;57.568;25.814;2023-07-22T04:02:46;100194.06;;;11.75;100.00
59650;BME280;46162;57.568;25.814;2023-07-22T04:05:15;100192.53;;;11.81;100.00
59650;BME280;46162;57.568;25.814;2023-07-22T04:07:44;100200.13;;;11.86;100.00
59650;BME280;46162;57.568;25.814;2023-07-22T04:10:14;100192.69;;;11.96;100.00
59650;BME280;46162;57.568;25.814;2023-07-22T04:12:43;100194.06;;;12.00;100.00
59650;BME280;46162;57.568;25.814;2023-07-22T04:15:12;100196.03;;;12.06;100.00
59650;BME280;46162;57.568;25.814;2023-07-22T04:17:42;100187.41;;;12.11;100.00
59650;BME280;46162;57.568;25.814;2023-07-22T04:20:11;100198.88;;;12.21;100.00
59650;BME280;46162;57.568;25.814;2023-07-22T04:22:40;100192.59;;;12.29;100.00
59650;BME280;46162;57.568;25.814;2023-07-22T04:25:09;100183.78;;;12.35;100.00
59650;BME280;46162;57.568;25.814;2023-07-22T04:27:40;100179.34;;;12.42;100.00
59650;BME280;46162;57.568;25.814;2023-07-22T04:30:10;100187.44;;;12.50;100.00
59650;BME280;46162;57.568;25.814;2023-07-22T04:32:42;100187.38;;;12.58;100.00
59650;BME280;46162;57.568;25.814;2023-07-22T04:35:11;100192.78;;;12.66;100.00
59650;BME280;46162;57.568;25.814;2023-07-22T04:37:40;100187.28;;;12.75;100.00
59650;BME280;46162;57.568;25.814;2023-07-22T04:40:09;100186.91;;;12.86;100.00
59650;BME280;46162;57.568;25.814;2023-07-22T04:42:42;100191.59;;;12.92;100.00
59650;BME280;46162;57.568;25.814;2023-07-22T04:45:11;100185.09;;;13.01;100.00
59650;BME280;46162;57.568;25.814;2023-07-22T04:47:41;100182.19;;;13.03;100.00
59650;BME280;46162;57.568;25.814;2023-07-22T04:50:11;100193.53;;;13.06;100.00
59650;BME280;46162;57.568;25.814;2023-07-22T04:52:42;100182.50;;;13.08;100.00
59650;BME280;46162;57.568;25.814;2023-07-22T04:55:11;100195.88;;;13.09;100.00
59650;BME280;46162;57.568;25.814;2023-07-22T04:57:41;100190.75;;;13.15;100.00
59650;BME280;46162;57.568;25.814;2023-07-22T05:00:12;100184.50;;;13.14;100.00
59650;BME280;46162;57.568;25.814;2023-07-22T05:02:43;100194.13;;;13.17;100.00
59650;BME280;46162;57.568;25.814;2023-07-22T05:05:13;100200.88;;;13.21;100.00
59650;BME280;46162;57.568;25.814;2023-07-22T05:07:42;100199.47;;;13.25;100.00
59650;BME280;46162;57.568;25.814;2023-07-22T05:10:10;100200.69;;;13.30;100.00
59650;BME280;46162;57.568;25.814;2023-07-22T05:12:42;100206.56;;;13.34;100.00
59650;BME280;46162;57.568;25.814;2023-07-22T05:15:12;100195.84;;;13.41;100.00
59650;BME280;46162;57.568;25.814;2023-07-22T05:17:41;100194.56;;;13.51;100.00
59650;BME280;46162;57.568;25.814;2023-07-22T05:20:10;100189.91;;;13.60;100.00
59650;BME280;46162;57.568;25.814;2023-07-22T05:22:41;100199.19;;;13.66;100.00
59650;BME280;46162;57.568;25.814;2023-07-22T05:25:10;100198.72;;;13.77;100.00
59650;BME280;46162;57.568;25.814;2023-07-22T05:27:39;100189.19;;;13.81;100.00
59650;BME280;46162;57.568;25.814;2023-07-22T05:30:10;100198.66;;;13.85;100.00
59650;BME280;46162;57.568;25.814;2023-07-22T05:32:59;100197.34;;;13.81;100.00
59650;BME280;46162;57.568;25.814;2023-07-22T05:35:27;100195.47;;;13.82;100.00
59650;BME280;46162;57.568;25.814;2023-07-22T05:37:57;100190.81;;;13.90;100.00
59650;BME280;46162;57.568;25.814;2023-07-22T05:40:25;100188.38;;;13.95;100.00
59650;BME280;46162;57.568;25.814;2023-07-22T05:42:54;100195.69;;;14.10;100.00
59650;BME280;46162;57.568;25.814;2023-07-22T05:45:24;100187.44;;;14.18;100.00
59650;BME280;46162;57.568;25.814;2023-07-22T05:47:53;100192.75;;;14.11;100.00
59650;BME280;46162;57.568;25.814;2023-07-22T05:50:22;100185.94;;;14.01;100.00
59650;BME280;46162;57.568;25.814;2023-07-22T05:52:50;100189.31;;;14.03;100.00
59650;BME280;46162;57.568;25.814;2023-07-22T05:55:19;100184.06;;;14.16;100.00
59650;BME280;46162;57.568;25.814;2023-07-22T05:57:47;100194.75;;;14.32;100.00
59650;BME280;46162;57.568;25.814;2023-07-22T06:00:16;100194.91;;;14.46;100.00
59650;BME280;46162;57.568;25.814;2023-07-22T06:02:47;100185.16;;;14.51;100.00
59650;BME280;46162;57.568;25.814;2023-07-22T06:05:16;100197.25;;;14.63;100.00
59650;BME280;46162;57.568;25.814;2023-07-22T06:07:45;100182.34;;;14.74;100.00
59650;BME280;46162;57.568;25.814;2023-07-22T06:10:14;100192.81;;;14.77;100.00
59650;BME280;46162;57.568;25.814;2023-07-22T06:12:42;100192.13;;;14.90;100.00
59650;BME280;46162;57.568;25.814;2023-07-22T06:15:11;100184.88;;;14.97;100.00
59650;BME280;46162;57.568;25.814;2023-07-22T06:17:40;100191.94;;;15.13;100.00
59650;BME280;46162;57.568;25.814;2023-07-22T06:20:11;100187.47;;;15.27;100.00
59650;BME280;46162;57.568;25.814;2023-07-22T06:22:40;100191.75;;;15.36;100.00
59650;BME280;46162;57.568;25.814;2023-07-22T06:25:08;100189.47;;;15.40;100.00
59650;BME280;46162;57.568;25.814;2023-07-22T06:27:38;100189.06;;;15.43;100.00
59650;BME280;46162;57.568;25.814;2023-07-22T06:30:07;100188.50;;;15.47;100.00
59650;BME280;46162;57.568;25.814;2023-07-22T06:32:37;100183.53;;;15.51;100.00
59650;BME280;46162;57.568;25.814;2023-07-22T06:35:07;100189.22;;;15.56;100.00
59650;BME280;46162;57.568;25.814;2023-07-22T06:37:37;100188.88;;;15.66;100.00
59650;BME280;46162;57.568;25.814;2023-07-22T06:40:07;100187.06;;;15.73;100.00
59650;BME280;46162;57.568;25.814;2023-07-22T06:42:36;100191.72;;;15.79;100.00
59650;BME280;46162;57.568;25.814;2023-07-22T06:45:06;100192.19;;;15.83;100.00
59650;BME280;46162;57.568;25.814;2023-07-22T06:47:35;100188.28;;;15.99;100.00
59650;BME280;46162;57.568;25.814;2023-07-22T06:50:05;100191.31;;;15.82;100.00
59650;BME280;46162;57.568;25.814;2023-07-22T06:52:34;100182.19;;;15.90;100.00
59650;BME280;46162;57.568;25.814;2023-07-22T06:55:05;100176.69;;;15.83;100.00
59650;BME280;46162;57.568;25.814;2023-07-22T06:57:33;100188.88;;;15.94;100.00
59650;BME280;46162;57.568;25.814;2023-07-22T07:00:03;100178.56;;;16.18;100.00
59650;BME280;46162;57.568;25.814;2023-07-22T07:02:32;100183.63;;;16.21;100.00
59650;BME280;46162;57.568;25.814;2023-07-22T07:05:00;100180.72;;;16.29;100.00
59650;BME280;46162;57.568;25.814;2023-07-22T07:07:29;100180.94;;;16.34;100.00
59650;BME280;46162;57.568;25.814;2023-07-22T07:09:59;100184.09;;;16.31;100.00
59650;BME280;46162;57.568;25.814;2023-07-22T07:12:29;100184.50;;;16.28;100.00
59650;BME280;46162;57.568;25.814;2023-07-22T07:14:58;100190.41;;;16.38;100.00
59650;BME280;46162;57.568;25.814;2023-07-22T07:17:27;100184.41;;;16.49;100.00
59650;BME280;46162;57.568;25.814;2023-07-22T07:19:55;100180.00;;;16.55;100.00
59650;BME280;46162;57.568;25.814;2023-07-22T07:22:24;100179.19;;;16.54;100.00
59650;BME280;46162;57.568;25.814;2023-07-22T07:24:53;100178.31;;;16.54;100.00
59650;BME280;46162;57.568;25.814;2023-07-22T07:27:22;100175.44;;;16.69;100.00
59650;BME280;46162;57.568;25.814;2023-07-22T07:29:52;100175.94;;;16.79;100.00
59650;BME280;46162;57.568;25.814;2023-07-22T07:32:22;100174.06;;;16.86;100.00
59650;BME280;46162;57.568;25.814;2023-07-22T07:34:51;100177.44;;;16.95;100.00
59650;BME280;46162;57.568;25.814;2023-07-22T07:37:22;100177.03;;;16.98;100.00
59650;BME280;46162;57.568;25.814;2023-07-22T07:39:50;100177.88;;;17.05;100.00
59650;BME280;46162;57.568;25.814;2023-07-22T07:42:19;100172.44;;;17.12;100.00
59650;BME280;46162;57.568;25.814;2023-07-22T07:44:48;100185.25;;;17.18;100.00
59650;BME280;46162;57.568;25.814;2023-07-22T07:47:18;100184.59;;;17.16;100.00
59650;BME280;46162;57.568;25.814;2023-07-22T07:49:46;100178.75;;;17.19;100.00
59650;BME280;46162;57.568;25.814;2023-07-22T07:52:16;100171.00;;;17.29;100.00
59650;BME280;46162;57.568;25.814;2023-07-22T07:54:44;100170.38;;;17.27;100.00
59650;BME280;46162;57.568;25.814;2023-07-22T07:57:13;100179.16;;;17.23;100.00
59650;BME280;46162;57.568;25.814;2023-07-22T07:59:42;100172.88;;;17.35;100.00
59650;BME280;46162;57.568;25.814;2023-07-22T08:02:10;100175.41;;;17.50;100.00
59650;BME280;46162;57.568;25.814;2023-07-22T08:04:41;100173.75;;;17.49;100.00
59650;BME280;46162;57.568;25.814;2023-07-22T08:07:09;100173.97;;;17.61;100.00
59650;BME280;46162;57.568;25.814;2023-07-22T08:09:38;100183.41;;;17.52;100.00
59650;BME280;46162;57.568;25.814;2023-07-22T08:12:07;100182.34;;;17.39;100.00
59650;BME280;46162;57.568;25.814;2023-07-22T08:14:36;100177.72;;;17.60;100.00
59650;BME280;46162;57.568;25.814;2023-07-22T08:17:05;100177.31;;;17.63;100.00
59650;BME280;46162;57.568;25.814;2023-07-22T08:19:33;100178.34;;;17.75;100.00
59650;BME280;46162;57.568;25.814;2023-07-22T08:22:04;100177.72;;;17.87;100.00
59650;BME280;46162;57.568;25.814;2023-07-22T08:24:33;100181.06;;;18.02;100.00
59650;BME280;46162;57.568;25.814;2023-07-22T08:27:02;100169.25;;;18.21;100.00
59650;BME280;46162;57.568;25.814;2023-07-22T08:29:31;100167.59;;;18.20;100.00
59650;BME280;46162;57.568;25.814;2023-07-22T08:32:00;100175.97;;;18.25;100.00
59650;BME280;46162;57.568;25.814;2023-07-22T08:34:28;100169.63;;;18.32;100.00
59650;BME280;46162;57.568;25.814;2023-07-22T08:36:57;100170.88;;;18.42;100.00
59650;BME280;46162;57.568;25.814;2023-07-22T08:39:27;100163.63;;;18.61;100.00
59650;BME280;46162;57.568;25.814;2023-07-22T08:41:57;100163.19;;;18.78;100.00
59650;BME280;46162;57.568;25.814;2023-07-22T08:44:32;100160.63;;;18.83;100.00
59650;BME280;46162;57.568;25.814;2023-07-22T08:47:05;100169.44;;;18.85;100.00
59650;BME280;46162;57.568;25.814;2023-07-22T08:49:35;100168.28;;;18.61;100.00
59650;BME280;46162;57.568;25.814;2023-07-22T08:52:04;100164.34;;;18.50;100.00
59650;BME280;46162;57.568;25.814;2023-07-22T08:54:34;100171.44;;;18.58;100.00
59650;BME280;46162;57.568;25.814;2023-07-22T08:57:05;100160.66;;;18.69;100.00
59650;BME280;46162;57.568;25.814;2023-07-22T08:59:36;100160.34;;;18.91;100.00
59650;BME280;46162;57.568;25.814;2023-07-22T09:02:06;100158.03;;;18.95;100.00
59650;BME280;46162;57.568;25.814;2023-07-22T09:04:38;100157.25;;;18.81;100.00
59650;BME280;46162;57.568;25.814;2023-07-22T09:07:08;100167.81;;;18.70;100.00
59650;BME280;46162;57.568;25.814;2023-07-22T09:09:38;100164.09;;;18.52;100.00
59650;BME280;46162;57.568;25.814;2023-07-22T09:12:08;100164.78;;;18.40;100.00
59650;BME280;46162;57.568;25.814;2023-07-22T09:14:38;100162.13;;;18.20;100.00
59650;BME280;46162;57.568;25.814;2023-07-22T09:17:08;100158.50;;;18.33;100.00
59650;BME280;46162;57.568;25.814;2023-07-22T09:19:37;100165.38;;;18.49;100.00
59650;BME280;46162;57.568;25.814;2023-07-22T09:22:07;100176.00;;;18.70;100.00
59650;BME280;46162;57.568;25.814;2023-07-22T09:24:37;100169.00;;;18.88;100.00
59650;BME280;46162;57.568;25.814;2023-07-22T09:27:06;100176.34;;;18.94;100.00
59650;BME280;46162;57.568;25.814;2023-07-22T09:29:37;100168.16;;;18.94;100.00
59650;BME280;46162;57.568;25.814;2023-07-22T09:32:07;100167.16;;;19.13;100.00
59650;BME280;46162;57.568;25.814;2023-07-22T09:34:36;100172.44;;;19.40;100.00
59650;BME280;46162;57.568;25.814;2023-07-22T09:37:05;100164.41;;;19.45;100.00
59650;BME280;46162;57.568;25.814;2023-07-22T09:39:35;100179.00;;;19.64;100.00
59650;BME280;46162;57.568;25.814;2023-07-22T09:42:05;100169.13;;;19.88;100.00
59650;BME280;46162;57.568;25.814;2023-07-22T09:44:36;100168.22;;;19.94;100.00
59650;BME280;46162;57.568;25.814;2023-07-22T09:47:08;100170.47;;;19.97;100.00
59650;BME280;46162;57.568;25.814;2023-07-22T09:49:40;100169.78;;;19.84;100.00
59650;BME280;46162;57.568;25.814;2023-07-22T09:52:11;100164.34;;;20.02;100.00
59650;BME280;46162;57.568;25.814;2023-07-22T09:54:48;100177.34;;;20.07;100.00
59650;BME280;46162;57.568;25.814;2023-07-22T09:57:20;100175.00;;;20.29;100.00
59650;BME280;46162;57.568;25.814;2023-07-22T09:59:51;100175.09;;;20.40;100.00
59650;BME280;46162;57.568;25.814;2023-07-22T10:02:22;100172.34;;;20.04;100.00
59650;BME280;46162;57.568;25.814;2023-07-22T10:04:52;100165.97;;;20.28;100.00
59650;BME280;46162;57.568;25.814;2023-07-22T10:07:21;100162.28;;;20.53;100.00
59650;BME280;46162;57.568;25.814;2023-07-22T10:09:53;100161.81;;;20.74;100.00
59650;BME280;46162;57.568;25.814;2023-07-22T10:12:25;100166.47;;;20.74;100.00
59650;BME280;46162;57.568;25.814;2023-07-22T10:14:55;100163.06;;;20.60;100.00
59650;BME280;46162;57.568;25.814;2023-07-22T10:17:27;100171.34;;;19.73;98.65
59650;BME280;46162;57.568;25.814;2023-07-22T10:19:56;100172.44;;;19.40;100.00
59650;BME280;46162;57.568;25.814;2023-07-22T10:22:26;100176.13;;;19.27;100.00
59650;BME280;46162;57.568;25.814;2023-07-22T10:24:57;100173.34;;;19.02;100.00
59650;BME280;46162;57.568;25.814;2023-07-22T10:27:28;100167.28;;;18.94;100.00
59650;BME280;46162;57.568;25.814;2023-07-22T10:29:58;100171.38;;;18.71;100.00
59650;BME280;46162;57.568;25.814;2023-07-22T10:32:32;100171.84;;;18.61;100.00
59650;BME280;46162;57.568;25.814;2023-07-22T10:35:01;100174.19;;;18.51;100.00
59650;BME280;46162;57.568;25.814;2023-07-22T10:37:31;100166.69;;;18.40;100.00
59650;BME280;46162;57.568;25.814;2023-07-22T10:40:01;100171.91;;;18.41;100.00
59650;BME280;46162;57.568;25.814;2023-07-22T10:42:53;100177.44;;;18.35;100.00
59650;BME280;46162;57.568;25.814;2023-07-22T10:45:26;100175.16;;;18.18;100.00
59650;BME280;46162;57.568;25.814;2023-07-22T10:48:05;100174.72;;;18.21;100.00
59650;BME280;46162;57.568;25.814;2023-07-22T10:50:41;100175.81;;;18.07;100.00
59650;BME280;46162;57.568;25.814;2023-07-22T10:53:11;100176.44;;;18.02;100.00
59650;BME280;46162;57.568;25.814;2023-07-22T10:56:12;100174.13;;;17.99;100.00
59650;BME280;46162;57.568;25.814;2023-07-22T10:58:58;100174.56;;;18.03;100.00
59650;BME280;46162;57.568;25.814;2023-07-22T11:01:34;100174.34;;;18.04;100.00
59650;BME280;46162;57.568;25.814;2023-07-22T11:04:06;100173.91;;;18.14;100.00
59650;BME280;46162;57.568;25.814;2023-07-22T11:06:36;100176.19;;;18.17;100.00
59650;BME280;46162;57.568;25.814;2023-07-22T11:09:05;100168.81;;;18.24;100.00
59650;BME280;46162;57.568;25.814;2023-07-22T11:11:36;100175.16;;;18.18;100.00
59650;BME280;46162;57.568;25.814;2023-07-22T11:14:20;100169.69;;;18.18;100.00
59650;BME280;46162;57.568;25.814;2023-07-22T11:16:49;100162.75;;;18.22;100.00
59650;BME280;46162;57.568;25.814;2023-07-22T11:19:19;100160.41;;;18.26;100.00
59650;BME280;46162;57.568;25.814;2023-07-22T11:21:48;100167.16;;;18.23;100.00
59650;BME280;46162;57.568;25.814;2023-07-22T11:24:18;100168.16;;;18.36;100.00
59650;BME280;46162;57.568;25.814;2023-07-22T11:26:47;100161.41;;;18.45;100.00
59650;BME280;46162;57.568;25.814;2023-07-22T11:29:16;100167.47;;;18.47;100.00
59650;BME280;46162;57.568;25.814;2023-07-22T11:31:49;100166.44;;;18.41;100.00
59650;BME280;46162;57.568;25.814;2023-07-22T11:34:20;100172.34;;;18.45;100.00
59650;BME280;46162;57.568;25.814;2023-07-22T11:36:50;100164.34;;;18.50;100.00
59650;BME280;46162;57.568;25.814;2023-07-22T11:39:20;100167.25;;;18.55;100.00
59650;BME280;46162;57.568;25.814;2023-07-22T11:41:50;100167.88;;;18.57;100.00
59650;BME280;46162;57.568;25.814;2023-07-22T11:44:20;100163.63;;;18.61;100.00
59650;BME280;46162;57.568;25.814;2023-07-22T11:46:53;100167.19;;;18.62;100.00
59650;BME280;46162;57.568;25.814;2023-07-22T11:49:23;100164.53;;;18.55;100.00
59650;BME280;46162;57.568;25.814;2023-07-22T11:51:55;100161.59;;;18.50;100.00
59650;BME280;46162;57.568;25.814;2023-07-22T11:54:24;100163.25;;;18.51;100.00
59650;BME280;46162;57.568;25.814;2023-07-22T11:56:53;100161.53;;;18.57;100.00
59650;BME280;46162;57.568;25.814;2023-07-22T11:59:35;100163.88;;;18.60;100.00
59650;BME280;46162;57.568;25.814;2023-07-22T12:02:05;100163.69;;;18.55;100.00
59650;BME280;46162;57.568;25.814;2023-07-22T12:04:34;100162.63;;;18.56;100.00
59650;BME280;46162;57.568;25.814;2023-07-22T12:07:03;100162.81;;;18.54;100.00
59650;BME280;46162;57.568;25.814;2023-07-22T12:09:32;100165.56;;;18.54;100.00
59650;BME280;46162;57.568;25.814;2023-07-22T12:12:01;100158.41;;;18.53;100.00
59650;BME280;46162;57.568;25.814;2023-07-22T12:14:33;100156.94;;;18.57;100.00
59650;BME280;46162;57.568;25.814;2023-07-22T12:17:07;100155.25;;;18.56;100.00
59650;BME280;46162;57.568;25.814;2023-07-22T12:19:36;100156.69;;;18.65;100.00
59650;BME280;46162;57.568;25.814;2023-07-22T12:22:05;100150.97;;;18.74;100.00
59650;BME280;46162;57.568;25.814;2023-07-22T12:24:33;100154.94;;;18.84;100.00
59650;BME280;46162;57.568;25.814;2023-07-22T12:27:03;100149.59;;;18.96;100.00
59650;BME280;46162;57.568;25.814;2023-07-22T12:29:32;100146.00;;;19.02;100.00
59650;BME280;46162;57.568;25.814;2023-07-22T12:32:00;100145.00;;;18.90;100.00
59650;BME280;46162;57.568;25.814;2023-07-22T12:34:31;100143.69;;;18.99;100.00
59650;BME280;46162;57.568;25.814;2023-07-22T12:37:00;100139.28;;;18.98;100.00
59650;BME280;46162;57.568;25.814;2023-07-22T12:39:29;100137.16;;;19.00;100.00
59650;BME280;46162;57.568;25.814;2023-07-22T12:41:57;100149.19;;;18.99;100.00
59650;BME280;46162;57.568;25.814;2023-07-22T12:44:26;100140.69;;;19.07;100.00